Time;durP1;ratioP1;P1;durP2;ratioP2;P2;SDS_P1;SDS_P2;PMS_P1;PMS_P2;Temp;Humidity;BMP_temperature;BMP_pressure;BME280_temperature;BME280_humidity;BME280_pressure;Samples;Min_cycle;Max_cycle;Signal;HPM_P1;HPM_P2
2023/07/17 00:02:24;;;;;;;8.25;3.60;;;;;;;;;;5079768;28;20082;-73
2023/07/17 00:04:50;;;;;;;8.07;3.60;;;;;;;;;;5077067;28;20017;-73
2023/07/17 00:07:16;;;;;;;11.23;3.80;;;;;;;;;;5074923;28;20474;-72
2023/07/17 00:09:43;;;;;;;8.27;3.78;;;;;;;;;;5076396;28;20032;-72
2023/07/17 00:12:09;;;;;;;6.18;3.20;;;;;;;;;;5073757;28;20032;-72
2023/07/17 00:14:35;;;;;;;9.35;4.32;;;;;;;;;;5077861;28;20029;-73
2023/07/17 00:17:01;;;;;;;9.65;3.90;;;;;;;;;;5075595;28;20024;-74
2023/07/17 00:19:27;;;;;;;9.52;3.63;;;;;;;;;;5078694;28;20458;-73
2023/07/17 00:21:53;;;;;;;9.52;4.28;;;;;;;;;;5077882;28;20032;-74
2023/07/17 00:24:19;;;;;;;8.82;3.72;;;;;;;;;;5073950;28;20056;-73
2023/07/17 00:26:45;;;;;;;10.68;3.88;;;;;;;;;;5073653;28;20025;-74
2023/07/17 00:29:23;;;;;;;10.55;4.20;;;;;;;;;;5074686;28;20028;-72
2023/07/17 00:31:49;;;;;;;8.15;4.13;;;;;;;;;;5073993;28;20021;-74
2023/07/17 00:34:15;;;;;;;13.65;3.67;;;;;;;;;;5073331;28;20072;-72
2023/07/17 00:36:41;;;;;;;12.23;3.88;;;;;;;;;;5073481;28;20130;-72
2023/07/17 00:39:07;;;;;;;8.07;3.63;;;;;;;;;;5073389;28;20047;-74
2023/07/17 00:41:33;;;;;;;8.88;3.83;;;;;;;;;;5073313;28;20052;-72
2023/07/17 00:43:59;;;;;;;9.77;4.20;;;;;;;;;;5071710;28;20429;-73
2023/07/17 00:46:25;;;;;;;10.20;4.03;;;;;;;;;;5072969;28;20025;-73
2023/07/17 00:48:51;;;;;;;6.68;3.85;;;;;;;;;;5073050;28;20077;-73
2023/07/17 00:51:17;;;;;;;9.52;3.90;;;;;;;;;;5072888;28;20077;-72
2023/07/17 00:53:44;;;;;;;9.48;3.90;;;;;;;;;;5072516;28;20035;-72
2023/07/17 00:56:10;;;;;;;10.15;4.40;;;;;;;;;;5073233;28;20378;-73
2023/07/17 00:58:37;;;;;;;8.73;4.00;;;;;;;;;;5073524;28;20059;-73
2023/07/17 01:01:03;;;;;;;14.45;4.78;;;;;;;;;;5073941;28;20457;-73
2023/07/17 01:03:30;;;;;;;9.82;4.25;;;;;;;;;;5071955;28;20027;-73
2023/07/17 01:05:59;;;;;;;8.23;4.20;;;;;;;;;;5073595;28;20097;-74
2023/07/17 01:08:25;;;;;;;11.32;4.10;;;;;;;;;;5073211;28;20086;-73
2023/07/17 01:10:52;;;;;;;8.85;4.18;;;;;;;;;;5072810;28;20098;-72
2023/07/17 01:13:18;;;;;;;12.50;4.68;;;;;;;;;;5072298;28;20043;-73
2023/07/17 01:15:44;;;;;;;12.32;5.07;;;;;;;;;;5072294;28;20482;-73
2023/07/17 01:18:10;;;;;;;9.60;4.63;;;;;;;;;;5071600;28;20107;-73
2023/07/17 01:20:36;;;;;;;12.70;4.80;;;;;;;;;;5072914;28;20025;-72
2023/07/17 01:23:05;;;;;;;12.45;4.38;;;;;;;;;;5072796;28;20028;-72
2023/07/17 01:25:32;;;;;;;9.95;4.60;;;;;;;;;;5072336;28;20423;-72
2023/07/17 01:27:58;;;;;;;7.65;3.95;;;;;;;;;;5070926;28;20024;-72
2023/07/17 01:30:24;;;;;;;9.07;4.45;;;;;;;;;;5072980;28;20347;-72
2023/07/17 01:32:51;;;;;;;13.85;4.55;;;;;;;;;;5071766;28;20051;-72
2023/07/17 01:35:17;;;;;;;11.45;4.65;;;;;;;;;;5072130;28;20029;-72
2023/07/17 01:37:43;;;;;;;11.32;5.55;;;;;;;;;;5071876;28;20025;-72
2023/07/17 01:40:09;;;;;;;11.63;4.93;;;;;;;;;;5072246;28;20021;-73
2023/07/17 01:42:36;;;;;;;10.32;4.93;;;;;;;;;;5071725;28;20058;-73
2023/07/17 01:45:03;;;;;;;9.82;4.40;;;;;;;;;;5072175;28;20032;-74
2023/07/17 01:47:29;;;;;;;11.30;4.75;;;;;;;;;;5072844;28;20025;-73
2023/07/17 01:49:55;;;;;;;9.35;4.38;;;;;;;;;;5072910;28;20036;-73
2023/07/17 01:52:21;;;;;;;12.90;5.10;;;;;;;;;;5072473;28;20028;-74
2023/07/17 01:54:47;;;;;;;11.05;4.35;;;;;;;;;;5072105;28;20031;-73
2023/07/17 01:57:13;;;;;;;9.82;4.20;;;;;;;;;;5071952;28;20093;-72
2023/07/17 01:59:39;;;;;;;10.82;4.55;;;;;;;;;;5071747;28;20100;-72
2023/07/17 02:02:06;;;;;;;9.00;4.10;;;;;;;;;;5071405;28;20023;-71
2023/07/17 02:04:32;;;;;;;12.20;5.00;;;;;;;;;;5068645;28;20474;-71
2023/07/17 02:06:58;;;;;;;14.00;4.78;;;;;;;;;;5071733;28;20033;-72
2023/07/17 02:09:23;;;;;;;12.07;4.03;;;;;;;;;;5071777;28;20031;-71
2023/07/17 02:11:49;;;;;;;11.63;4.70;;;;;;;;;;5072599;28;20091;-71
2023/07/17 02:14:15;;;;;;;11.18;4.32;;;;;;;;;;5073090;28;20082;-72
2023/07/17 02:16:41;;;;;;;10.57;4.57;;;;;;;;;;5072779;28;20028;-73
2023/07/17 02:19:07;;;;;;;8.95;4.20;;;;;;;;;;5071503;28;20025;-73
2023/07/17 02:21:33;;;;;;;11.02;4.32;;;;;;;;;;5071297;28;20092;-72
2023/07/17 02:23:59;;;;;;;13.10;4.53;;;;;;;;;;5070617;28;20486;-73
2023/07/17 02:26:26;;;;;;;10.20;4.63;;;;;;;;;;5073861;28;20020;-72
2023/07/17 02:28:52;;;;;;;10.27;4.40;;;;;;;;;;5073971;28;20080;-72
2023/07/17 02:31:17;;;;;;;13.57;4.72;;;;;;;;;;5077586;28;20024;-73
2023/07/17 02:33:43;;;;;;;11.05;4.07;;;;;;;;;;5075057;28;20078;-71
2023/07/17 02:36:10;;;;;;;9.75;4.90;;;;;;;;;;5077255;28;20048;-71
2023/07/17 02:38:36;;;;;;;13.15;4.35;;;;;;;;;;5079152;28;20439;-70
2023/07/17 02:41:02;;;;;;;12.30;4.70;;;;;;;;;;5072026;28;20024;-72
2023/07/17 02:43:28;;;;;;;10.57;4.53;;;;;;;;;;5069090;28;20500;-72
2023/07/17 02:45:54;;;;;;;13.00;4.72;;;;;;;;;;5071486;28;20024;-73
2023/07/17 02:48:20;;;;;;;11.00;4.63;;;;;;;;;;5071107;28;20620;-73
2023/07/17 02:50:46;;;;;;;11.15;4.70;;;;;;;;;;5071239;28;20028;-71
2023/07/17 02:53:12;;;;;;;14.13;4.70;;;;;;;;;;5070502;28;20382;-73
2023/07/17 02:55:38;;;;;;;12.57;4.72;;;;;;;;;;5071320;28;20020;-72
2023/07/17 02:58:04;;;;;;;9.70;4.43;;;;;;;;;;5070914;28;20032;-71
2023/07/17 03:00:30;;;;;;;12.77;4.57;;;;;;;;;;5071441;28;20413;-72
2023/07/17 03:02:56;;;;;;;12.90;4.82;;;;;;;;;;5070096;28;20413;-71
2023/07/17 03:05:22;;;;;;;9.15;4.20;;;;;;;;;;5071271;28;20021;-72
2023/07/17 03:07:48;;;;;;;11.48;4.45;;;;;;;;;;5075755;28;20029;-75
2023/07/17 03:10:14;;;;;;;14.25;4.88;;;;;;;;;;5076296;28;20029;-72
2023/07/17 03:12:41;;;;;;;10.25;4.53;;;;;;;;;;5075317;28;20151;-72
2023/07/17 03:15:07;;;;;;;10.93;4.20;;;;;;;;;;5075496;28;20085;-72
2023/07/17 03:17:33;;;;;;;13.40;5.07;;;;;;;;;;5074465;28;20024;-73
2023/07/17 03:20:00;;;;;;;17.33;4.80;;;;;;;;;;5074487;28;20028;-72
2023/07/17 03:22:26;;;;;;;15.23;4.80;;;;;;;;;;5074651;28;20028;-72
2023/07/17 03:24:52;;;;;;;15.52;5.22;;;;;;;;;;5074457;28;20017;-72
2023/07/17 03:27:18;;;;;;;12.65;4.72;;;;;;;;;;5074700;28;20025;-73
2023/07/17 03:29:47;;;;;;;16.90;4.40;;;;;;;;;;5077869;28;20327;-73
2023/07/17 03:32:13;;;;;;;15.73;4.75;;;;;;;;;;5075080;28;20064;-73
2023/07/17 03:34:39;;;;;;;11.55;4.38;;;;;;;;;;5074172;28;20032;-72
2023/07/17 03:37:05;;;;;;;9.35;4.78;;;;;;;;;;5074182;28;20025;-71
2023/07/17 03:39:31;;;;;;;12.65;4.82;;;;;;;;;;5074319;28;20390;-72
2023/07/17 03:41:57;;;;;;;9.13;4.20;;;;;;;;;;5073761;28;20059;-72
2023/07/17 03:44:23;;;;;;;13.68;5.10;;;;;;;;;;5074057;28;20021;-73
2023/07/17 03:46:49;;;;;;;11.98;5.20;;;;;;;;;;5073885;28;20438;-76
2023/07/17 03:49:15;;;;;;;18.25;4.88;;;;;;;;;;5074866;28;20043;-75
2023/07/17 03:51:41;;;;;;;12.52;4.85;;;;;;;;;;5074238;28;20466;-72
2023/07/17 03:54:07;;;;;;;12.60;5.18;;;;;;;;;;5073745;28;20025;-72
2023/07/17 03:56:35;;;;;;;19.58;4.72;;;;;;;;;;5073806;28;20046;-71
2023/07/17 03:59:01;;;;;;;11.32;4.57;;;;;;;;;;5074011;28;20044;-72
2023/07/17 04:01:27;;;;;;;16.80;5.20;;;;;;;;;;5073753;28;20405;-74
2023/07/17 04:03:53;;;;;;;12.38;4.88;;;;;;;;;;5073880;28;20028;-71
2023/07/17 04:06:19;;;;;;;14.88;5.70;;;;;;;;;;5073567;28;20031;-74
2023/07/17 04:08:45;;;;;;;12.23;5.07;;;;;;;;;;5073718;28;20083;-72
2023/07/17 04:11:11;;;;;;;12.00;4.85;;;;;;;;;;5073662;28;20037;-71
2023/07/17 04:13:38;;;;;;;12.40;5.15;;;;;;;;;;5074226;28;20382;-72
2023/07/17 04:16:05;;;;;;;9.00;4.75;;;;;;;;;;5072067;28;20515;-73
2023/07/17 04:18:31;;;;;;;10.50;4.80;;;;;;;;;;5073094;28;20107;-73
2023/07/17 04:20:57;;;;;;;9.60;4.55;;;;;;;;;;5073649;28;20032;-70
2023/07/17 04:23:23;;;;;;;11.85;5.07;;;;;;;;;;5074602;28;20025;-77
2023/07/17 04:25:50;;;;;;;15.32;4.95;;;;;;;;;;5073821;28;20017;-75
2023/07/17 04:28:16;;;;;;;14.32;5.53;;;;;;;;;;5073444;28;20090;-77
2023/07/17 04:30:42;;;;;;;10.50;5.07;;;;;;;;;;5072342;28;20036;-76
2023/07/17 04:33:08;;;;;;;14.98;5.35;;;;;;;;;;5075426;28;20097;-75
2023/07/17 04:35:40;;;;;;;14.98;5.15;;;;;;;;;;5074129;28;20032;-75
2023/07/17 04:38:06;;;;;;;15.15;5.30;;;;;;;;;;5081847;28;20038;-75
2023/07/17 04:40:33;;;;;;;12.18;5.10;;;;;;;;;;5080758;28;20040;-75
2023/07/17 04:43:00;;;;;;;11.43;5.35;;;;;;;;;;5072737;28;20043;-75
2023/07/17 04:45:26;;;;;;;12.77;5.15;;;;;;;;;;5072583;28;20025;-75
2023/07/17 04:47:52;;;;;;;11.70;5.00;;;;;;;;;;5075099;28;20028;-75
2023/07/17 04:50:18;;;;;;;11.38;4.70;;;;;;;;;;5073136;28;20055;-76
2023/07/17 04:52:44;;;;;;;14.77;4.90;;;;;;;;;;5072421;28;20493;-74
2023/07/17 04:55:10;;;;;;;12.85;5.15;;;;;;;;;;5073930;28;20033;-73
2023/07/17 04:57:36;;;;;;;13.20;4.90;;;;;;;;;;5072638;28;20070;-73
2023/07/17 05:00:05;;;;;;;14.20;5.47;;;;;;;;;;5072677;28;20024;-72
2023/07/17 05:02:31;;;;;;;14.23;5.35;;;;;;;;;;5074279;28;20012;-74
2023/07/17 05:04:57;;;;;;;12.50;4.65;;;;;;;;;;5075099;28;20050;-74
2023/07/17 05:07:23;;;;;;;17.88;5.75;;;;;;;;;;5074730;28;20032;-74
2023/07/17 05:09:49;;;;;;;11.77;5.28;;;;;;;;;;5072292;28;20405;-73
2023/07/17 05:12:15;;;;;;;10.55;4.95;;;;;;;;;;5073033;28;20074;-72
2023/07/17 05:14:41;;;;;;;15.13;5.85;;;;;;;;;;5074243;28;20025;-74
2023/07/17 05:17:07;;;;;;;13.68;4.90;;;;;;;;;;5074711;28;20032;-73
2023/07/17 05:19:33;;;;;;;17.42;5.72;;;;;;;;;;5077726;28;20068;-76
2023/07/17 05:21:59;;;;;;;11.60;5.40;;;;;;;;;;5080401;28;20092;-74
2023/07/17 05:24:25;;;;;;;17.58;6.90;;;;;;;;;;5073711;28;20024;-75
2023/07/17 05:26:52;;;;;;;17.95;6.78;;;;;;;;;;5075938;28;20031;-73
2023/07/17 05:29:18;;;;;;;18.38;6.07;;;;;;;;;;5072748;28;20346;-74
2023/07/17 05:31:44;;;;;;;12.77;5.32;;;;;;;;;;5071966;28;20021;-74
2023/07/17 05:34:10;;;;;;;13.57;5.05;;;;;;;;;;5075143;28;20042;-74
2023/07/17 05:36:36;;;;;;;13.13;5.32;;;;;;;;;;5072506;28;20024;-73
2023/07/17 05:39:03;;;;;;;12.32;5.10;;;;;;;;;;5069597;28;20040;-75
2023/07/17 05:41:29;;;;;;;14.20;5.70;;;;;;;;;;5071386;28;20474;-75
2023/07/17 05:43:54;;;;;;;13.35;5.53;;;;;;;;;;5069401;28;20045;-76
2023/07/17 05:46:20;;;;;;;14.95;5.13;;;;;;;;;;5071918;28;20036;-76
2023/07/17 05:48:46;;;;;;;18.33;6.22;;;;;;;;;;5072339;28;20020;-75
2023/07/17 05:51:12;;;;;;;16.10;5.00;;;;;;;;;;5071974;28;20029;-75
2023/07/17 05:53:38;;;;;;;17.80;5.70;;;;;;;;;;5071301;28;20032;-75
2023/07/17 05:56:04;;;;;;;12.90;5.25;;;;;;;;;;5071484;28;20020;-76
2023/07/17 05:58:30;;;;;;;14.15;5.25;;;;;;;;;;5072540;28;20111;-76
2023/07/17 06:00:56;;;;;;;13.88;6.05;;;;;;;;;;5073275;28;20049;-73
2023/07/17 06:03:22;;;;;;;16.27;6.15;;;;;;;;;;5071202;28;20481;-75
2023/07/17 06:05:48;;;;;;;17.95;5.63;;;;;;;;;;5070951;28;20021;-74
2023/07/17 06:08:14;;;;;;;15.63;5.45;;;;;;;;;;5071678;28;20032;-74
2023/07/17 06:10:42;;;;;;;18.77;5.53;;;;;;;;;;5071731;28;20060;-74
2023/07/17 06:13:09;;;;;;;16.92;5.82;;;;;;;;;;5071006;28;20037;-73
2023/07/17 06:15:35;;;;;;;18.48;5.65;;;;;;;;;;5072868;28;20029;-73
2023/07/17 06:18:01;;;;;;;16.13;5.38;;;;;;;;;;5072309;28;20432;-74
2023/07/17 06:20:27;;;;;;;19.17;4.82;;;;;;;;;;5072613;28;20070;-75
2023/07/17 06:22:53;;;;;;;22.42;5.22;;;;;;;;;;5071372;28;20044;-72
2023/07/17 06:25:19;;;;;;;13.15;5.30;;;;;;;;;;5071919;28;20040;-73
2023/07/17 06:27:45;;;;;;;12.35;4.90;;;;;;;;;;5072052;28;20032;-74
2023/07/17 06:30:12;;;;;;;14.02;4.85;;;;;;;;;;5071691;28;20024;-75
2023/07/17 06:32:37;;;;;;;12.95;4.68;;;;;;;;;;5071859;28;20029;-74
2023/07/17 06:35:05;;;;;;;18.08;5.32;;;;;;;;;;5071559;28;20073;-74
2023/07/17 06:37:31;;;;;;;21.60;5.15;;;;;;;;;;5071063;28;20141;-74
2023/07/17 06:39:57;;;;;;;14.15;5.13;;;;;;;;;;5071727;28;20017;-72
2023/07/17 06:42:23;;;;;;;13.38;4.50;;;;;;;;;;5077224;28;20458;-72
2023/07/17 06:44:49;;;;;;;10.82;4.47;;;;;;;;;;5077540;28;20094;-72
2023/07/17 06:47:15;;;;;;;19.33;5.25;;;;;;;;;;5075127;28;20025;-72
2023/07/17 06:49:41;;;;;;;15.85;4.85;;;;;;;;;;5074754;28;20474;-74
2023/07/17 06:52:07;;;;;;;16.73;4.47;;;;;;;;;;5074925;28;20029;-73
2023/07/17 06:54:33;;;;;;;12.57;4.88;;;;;;;;;;5073420;28;20029;-74
2023/07/17 06:56:59;;;;;;;18.27;5.20;;;;;;;;;;5075916;28;20419;-74
2023/07/17 06:59:28;;;;;;;13.02;4.50;;;;;;;;;;5074468;28;20103;-78
2023/07/17 07:01:54;;;;;;;24.30;4.97;;;;;;;;;;5072643;28;20028;-74
2023/07/17 07:04:20;;;;;;;15.23;4.47;;;;;;;;;;5074621;28;20059;-76
2023/07/17 07:06:46;;;;;;;11.02;4.47;;;;;;;;;;5073873;28;20021;-73
2023/07/17 07:09:13;;;;;;;14.20;4.35;;;;;;;;;;5073975;28;20543;-74
2023/07/17 07:11:39;;;;;;;16.23;4.90;;;;;;;;;;5073434;28;20035;-75
2023/07/17 07:14:05;;;;;;;16.58;4.72;;;;;;;;;;5073371;28;20119;-74
2023/07/17 07:16:30;;;;;;;16.92;5.25;;;;;;;;;;5073706;28;20387;-73
2023/07/17 07:18:56;;;;;;;16.67;4.90;;;;;;;;;;5074015;28;20029;-75
2023/07/17 07:21:22;;;;;;;19.52;5.22;;;;;;;;;;5073515;28;20055;-74
2023/07/17 07:23:48;;;;;;;17.73;5.18;;;;;;;;;;5073144;28;20032;-74
2023/07/17 07:26:14;;;;;;;18.02;4.95;;;;;;;;;;5072024;28;20033;-74
2023/07/17 07:28:40;;;;;;;22.33;5.45;;;;;;;;;;5073500;28;20016;-76
2023/07/17 07:31:06;;;;;;;15.98;5.25;;;;;;;;;;5073427;28;20098;-73
2023/07/17 07:33:32;;;;;;;13.93;4.97;;;;;;;;;;5072502;28;20031;-76
2023/07/17 07:35:59;;;;;;;17.67;5.20;;;;;;;;;;5074527;28;20529;-73
2023/07/17 07:38:25;;;;;;;17.08;5.95;;;;;;;;;;5073674;28;20093;-74
2023/07/17 07:40:51;;;;;;;12.02;5.35;;;;;;;;;;5073429;28;20056;-73
2023/07/17 07:43:17;;;;;;;14.13;5.30;;;;;;;;;;5072509;28;20112;-74
2023/07/17 07:45:43;;;;;;;15.13;5.20;;;;;;;;;;5072601;28;20036;-73
2023/07/17 07:48:09;;;;;;;12.55;5.22;;;;;;;;;;5073027;28;20024;-73
2023/07/17 07:50:35;;;;;;;16.42;4.93;;;;;;;;;;5072772;28;20039;-72
2023/07/17 07:53:01;;;;;;;13.70;4.45;;;;;;;;;;5071839;28;20020;-74
2023/07/17 07:55:27;;;;;;;15.68;4.95;;;;;;;;;;5072322;28;20025;-74
2023/07/17 07:57:54;;;;;;;18.23;4.72;;;;;;;;;;5074153;28;20078;-72
2023/07/17 08:00:20;;;;;;;13.73;4.60;;;;;;;;;;5074754;28;20095;-73
2023/07/17 08:02:46;;;;;;;13.10;4.15;;;;;;;;;;5074393;28;20025;-75
2023/07/17 08:05:12;;;;;;;15.77;5.88;;;;;;;;;;5074867;28;20078;-74
2023/07/17 08:07:39;;;;;;;10.98;4.47;;;;;;;;;;5074649;28;20390;-74
2023/07/17 08:10:05;;;;;;;16.48;4.63;;;;;;;;;;5073601;28;20063;-73
2023/07/17 08:12:31;;;;;;;11.75;3.92;;;;;;;;;;5073184;28;20037;-74
2023/07/17 08:14:57;;;;;;;12.65;4.28;;;;;;;;;;5074020;28;20490;-74
2023/07/17 08:17:23;;;;;;;9.68;3.78;;;;;;;;;;5073687;28;20044;-72
2023/07/17 08:19:49;;;;;;;16.42;4.63;;;;;;;;;;5073305;28;20027;-73
2023/07/17 08:22:15;;;;;;;10.55;3.58;;;;;;;;;;5072930;28;20024;-72
2023/07/17 08:24:41;;;;;;;11.13;3.65;;;;;;;;;;5073354;28;20035;-74
2023/07/17 08:27:07;;;;;;;9.63;3.90;;;;;;;;;;5071268;28;20029;-74
2023/07/17 08:29:33;;;;;;;10.48;4.05;;;;;;;;;;5075040;28;20030;-73
2023/07/17 08:31:59;;;;;;;11.75;3.25;;;;;;;;;;5072428;28;20031;-75
2023/07/17 08:34:25;;;;;;;19.15;5.28;;;;;;;;;;5073126;28;20033;-74
2023/07/17 08:36:51;;;;;;;12.65;3.95;;;;;;;;;;5073217;28;20105;-73
2023/07/17 08:39:17;;;;;;;14.45;3.70;;;;;;;;;;5072831;28;20046;-73
2023/07/17 08:41:47;;;;;;;9.43;3.72;;;;;;;;;;5072556;28;20099;-74
2023/07/17 08:44:16;;;;;;;7.80;3.05;;;;;;;;;;5073022;28;20102;-73
2023/07/17 08:46:43;;;;;;;11.73;3.20;;;;;;;;;;5072929;28;20027;-74
2023/07/17 08:49:11;;;;;;;9.80;3.33;;;;;;;;;;5071354;28;20024;-73
2023/07/17 08:51:37;;;;;;;11.05;3.33;;;;;;;;;;5072657;28;20074;-72
2023/07/17 08:54:06;;;;;;;17.88;4.07;;;;;;;;;;5071905;28;20078;-73
2023/07/17 08:56:32;;;;;;;12.23;3.65;;;;;;;;;;5072493;28;20016;-74
2023/07/17 08:58:59;;;;;;;13.75;3.25;;;;;;;;;;5072514;28;20090;-73
2023/07/17 09:01:26;;;;;;;14.82;3.85;;;;;;;;;;5058908;28;20041;-74
2023/07/17 09:03:52;;;;;;;13.80;4.18;;;;;;;;;;5068811;28;20028;-73
2023/07/17 09:06:23;;;;;;;14.90;3.55;;;;;;;;;;5071620;28;20024;-74
2023/07/17 09:08:49;;;;;;;19.25;4.20;;;;;;;;;;5071826;28;20021;-73
2023/07/17 09:11:15;;;;;;;10.32;3.67;;;;;;;;;;5072218;28;20032;-73
2023/07/17 09:13:42;;;;;;;12.20;3.97;;;;;;;;;;5071890;28;20036;-74
2023/07/17 09:16:13;;;;;;;10.32;3.28;;;;;;;;;;5072754;28;20043;-73
2023/07/17 09:18:39;;;;;;;13.13;3.53;;;;;;;;;;5072245;28;20027;-73
2023/07/17 09:21:05;;;;;;;11.27;3.55;;;;;;;;;;5072505;28;20152;-73
2023/07/17 09:23:38;;;;;;;15.38;3.70;;;;;;;;;;5072035;28;20489;-75
2023/07/17 09:26:04;;;;;;;11.52;3.28;;;;;;;;;;5072740;28;20028;-72
2023/07/17 09:28:30;;;;;;;14.00;4.03;;;;;;;;;;5072867;28;20036;-74
2023/07/17 09:31:02;;;;;;;10.02;3.20;;;;;;;;;;5072307;28;20028;-73
2023/07/17 09:33:28;;;;;;;9.32;3.10;;;;;;;;;;5071714;28;20028;-74
2023/07/17 09:35:55;;;;;;;12.13;3.38;;;;;;;;;;5072119;28;20035;-73
2023/07/17 09:38:23;;;;;;;15.15;3.13;;;;;;;;;;5072117;28;20032;-74
2023/07/17 09:40:49;;;;;;;11.85;2.95;;;;;;;;;;5072438;28;20033;-73
2023/07/17 09:43:15;;;;;;;8.55;2.90;;;;;;;;;;5075350;28;20085;-75
2023/07/17 09:45:41;;;;;;;18.40;3.22;;;;;;;;;;5077975;28;20028;-74
2023/07/17 09:48:07;;;;;;;12.55;5.07;;;;;;;;;;5078893;28;20493;-74
2023/07/17 09:50:33;;;;;;;12.13;3.75;;;;;;;;;;5071916;28;20089;-73
2023/07/17 09:53:00;;;;;;;13.57;3.70;;;;;;;;;;5073018;28;20037;-72
2023/07/17 09:55:26;;;;;;;16.15;3.83;;;;;;;;;;5072232;28;20490;-74
2023/07/17 09:57:53;;;;;;;12.20;3.28;;;;;;;;;;5073600;28;20049;-73
2023/07/17 10:00:21;;;;;;;8.40;3.28;;;;;;;;;;5072178;28;20024;-73
2023/07/17 10:02:56;;;;;;;8.98;3.08;;;;;;;;;;5072582;28;20096;-75
2023/07/17 10:05:22;;;;;;;12.13;3.45;;;;;;;;;;5071988;28;20020;-74
2023/07/17 10:07:49;;;;;;;15.27;3.97;;;;;;;;;;5072059;28;20411;-75
2023/07/17 10:10:15;;;;;;;14.30;3.80;;;;;;;;;;5071216;28;20414;-74
2023/07/17 10:12:41;;;;;;;15.00;3.50;;;;;;;;;;5070903;28;20169;-74
2023/07/17 10:15:08;;;;;;;10.73;3.63;;;;;;;;;;5071383;28;20474;-74
2023/07/17 10:17:35;;;;;;;17.50;4.03;;;;;;;;;;5072056;28;20029;-73
2023/07/17 10:20:02;;;;;;;14.65;3.50;;;;;;;;;;5071581;28;20115;-75
2023/07/17 10:22:33;;;;;;;12.93;4.05;;;;;;;;;;5074953;28;20023;-75
2023/07/17 10:25:00;;;;;;;11.85;3.72;;;;;;;;;;5071932;28;20159;-77
2023/07/17 10:27:39;;;;;;;11.90;3.60;;;;;;;;;;5071352;28;20108;-76
2023/07/17 10:30:22;;;;;;;10.50;3.60;;;;;;;;;;5071300;28;20020;-73
2023/07/17 10:32:50;;;;;;;14.10;3.83;;;;;;;;;;5070998;28;20358;-74
2023/07/17 10:35:20;;;;;;;12.43;3.75;;;;;;;;;;5071381;28;20035;-72
2023/07/17 10:37:46;;;;;;;9.80;4.05;;;;;;;;;;5071616;28;20051;-74
2023/07/17 10:40:28;;;;;;;17.95;5.18;;;;;;;;;;5071732;28;20378;-76
2023/07/17 10:42:54;;;;;;;12.45;3.45;;;;;;;;;;5069834;28;20147;-75
2023/07/17 10:45:20;;;;;;;15.95;4.10;;;;;;;;;;5071648;28;20100;-75
2023/07/17 10:47:50;;;;;;;10.57;3.97;;;;;;;;;;5073578;28;20035;-73
2023/07/17 10:50:19;;;;;;;9.25;3.97;;;;;;;;;;5074816;28;20059;-75
2023/07/17 10:52:45;;;;;;;13.18;4.28;;;;;;;;;;5072150;28;20097;-74
2023/07/17 10:55:11;;;;;;;13.13;4.40;;;;;;;;;;5071163;28;20424;-74
2023/07/17 10:57:38;;;;;;;16.00;4.45;;;;;;;;;;5071006;28;20033;-75
2023/07/17 11:00:04;;;;;;;14.57;4.90;;;;;;;;;;5071939;28;20538;-74
2023/07/17 11:02:31;;;;;;;15.77;4.30;;;;;;;;;;5072938;28;20048;-74
2023/07/17 11:04:58;;;;;;;11.10;3.90;;;;;;;;;;5071949;28;20088;-74
2023/07/17 11:07:29;;;;;;;15.68;4.85;;;;;;;;;;5070364;28;20024;-75
2023/07/17 11:09:55;;;;;;;13.02;4.25;;;;;;;;;;5071006;28;20037;-74
2023/07/17 11:12:25;;;;;;;9.57;4.15;;;;;;;;;;5070954;28;20490;-74
2023/07/17 11:14:53;;;;;;;13.25;4.35;;;;;;;;;;5071370;28;20027;-73
2023/07/17 11:17:20;;;;;;;12.23;4.13;;;;;;;;;;5070902;28;20032;-74
2023/07/17 11:19:46;;;;;;;12.93;4.50;;;;;;;;;;5072070;28;20017;-71
2023/07/17 11:22:13;;;;;;;12.57;4.63;;;;;;;;;;5071492;28;20025;-73
2023/07/17 11:24:39;;;;;;;12.00;4.50;;;;;;;;;;5070949;28;20012;-73
2023/07/17 11:27:05;;;;;;;14.30;4.55;;;;;;;;;;5072086;28;20478;-73
2023/07/17 11:29:36;;;;;;;10.07;4.45;;;;;;;;;;5074305;28;20123;-74
2023/07/17 11:32:03;;;;;;;14.38;4.15;;;;;;;;;;5074923;28;20308;-74
2023/07/17 11:34:29;;;;;;;13.95;4.85;;;;;;;;;;5074262;28;20021;-74
2023/07/17 11:36:55;;;;;;;17.15;4.70;;;;;;;;;;5074028;28;20031;-72
2023/07/17 11:39:23;;;;;;;13.63;4.80;;;;;;;;;;5075219;28;20025;-73
2023/07/17 11:41:53;;;;;;;10.05;2.83;;;;;;;;;;5074052;28;20030;-73
2023/07/17 11:44:23;;;;;;;10.50;3.50;;;;;;;;;;5074170;28;20024;-72
2023/07/17 11:46:51;;;;;;;7.25;2.55;;;;;;;;;;5074132;28;20071;-75
2023/07/17 11:49:18;;;;;;;6.00;2.28;;;;;;;;;;5073827;28;20028;-73
2023/07/17 11:51:44;;;;;;;7.28;2.08;;;;;;;;;;5073980;28;20035;-73
2023/07/17 11:54:10;;;;;;;11.27;2.80;;;;;;;;;;5082242;28;20101;-72
2023/07/17 11:56:37;;;;;;;5.38;2.00;;;;;;;;;;5080279;28;20028;-71
2023/07/17 11:59:04;;;;;;;9.05;2.72;;;;;;;;;;5073927;28;20505;-74
2023/07/17 12:01:30;;;;;;;9.63;2.80;;;;;;;;;;5072360;28;20032;-74
2023/07/17 12:03:56;;;;;;;10.80;3.08;;;;;;;;;;5073301;28;20024;-73
2023/07/17 12:06:22;;;;;;;7.47;2.50;;;;;;;;;;5073875;28;20052;-72
2023/07/17 12:08:48;;;;;;;10.27;2.85;;;;;;;;;;5073770;28;20060;-75
2023/07/17 12:11:14;;;;;;;7.60;2.72;;;;;;;;;;5077298;28;20382;-74
2023/07/17 12:13:40;;;;;;;8.18;2.42;;;;;;;;;;5072688;28;20033;-72
2023/07/17 12:16:06;;;;;;;6.25;2.20;;;;;;;;;;5073232;28;20062;-71
2023/07/17 12:18:32;;;;;;;4.65;2.08;;;;;;;;;;5073382;28;20060;-74
2023/07/17 12:20:59;;;;;;;4.93;1.50;;;;;;;;;;5073311;28;20029;-75
2023/07/17 12:23:24;;;;;;;10.48;2.05;;;;;;;;;;5072537;28;20371;-73
2023/07/17 12:25:50;;;;;;;4.30;1.70;;;;;;;;;;5073489;28;20082;-74
2023/07/17 12:28:16;;;;;;;8.68;2.10;;;;;;;;;;5074330;28;20024;-73
2023/07/17 12:30:43;;;;;;;4.20;2.00;;;;;;;;;;5073228;28;20401;-73
2023/07/17 12:33:09;;;;;;;9.95;6.38;;;;;;;;;;5072592;28;20416;-76
2023/07/17 12:35:35;;;;;;;8.32;4.38;;;;;;;;;;5073341;28;20081;-73
2023/07/17 12:38:00;;;;;;;4.47;1.60;;;;;;;;;;5073194;28;20028;-72
2023/07/17 12:40:27;;;;;;;5.25;1.70;;;;;;;;;;5073184;28;20040;-73
2023/07/17 12:42:53;;;;;;;7.63;2.25;;;;;;;;;;5072075;28;20062;-75
2023/07/17 12:45:19;;;;;;;4.00;1.50;;;;;;;;;;5072931;28;20139;-72
2023/07/17 12:47:45;;;;;;;7.00;1.95;;;;;;;;;;5073017;28;20751;-72
2023/07/17 12:50:11;;;;;;;6.38;1.98;;;;;;;;;;5072747;28;20033;-74
2023/07/17 12:52:37;;;;;;;12.10;2.50;;;;;;;;;;5073158;28;20030;-74
2023/07/17 12:55:03;;;;;;;3.55;1.80;;;;;;;;;;5072538;28;20521;-74
2023/07/17 12:57:29;;;;;;;6.05;2.10;;;;;;;;;;5074776;28;20474;-75
2023/07/17 12:59:55;;;;;;;7.10;1.95;;;;;;;;;;5074048;28;20029;-74
2023/07/17 13:02:23;;;;;;;5.38;2.00;;;;;;;;;;5072482;28;20046;-74
2023/07/17 13:04:49;;;;;;;7.43;2.17;;;;;;;;;;5072542;28;20043;-73
2023/07/17 13:07:15;;;;;;;4.82;1.90;;;;;;;;;;5072487;28;20678;-74
2023/07/17 13:09:41;;;;;;;9.50;2.38;;;;;;;;;;5072859;28;20079;-78
2023/07/17 13:12:07;;;;;;;10.60;2.90;;;;;;;;;;5070511;28;20048;-74
2023/07/17 13:14:33;;;;;;;11.65;2.42;;;;;;;;;;5073212;28;20035;-75
2023/07/17 13:16:59;;;;;;;9.18;2.70;;;;;;;;;;5074396;28;20021;-74
2023/07/17 13:19:25;;;;;;;7.43;2.30;;;;;;;;;;5074466;28;20056;-74
2023/07/17 13:21:51;;;;;;;9.70;2.22;;;;;;;;;;5072405;28;20028;-73
2023/07/17 13:24:19;;;;;;;11.88;2.72;;;;;;;;;;5072440;28;20028;-73
2023/07/17 13:26:45;;;;;;;7.60;3.20;;;;;;;;;;5072549;28;20024;-73
2023/07/17 13:29:11;;;;;;;10.40;3.50;;;;;;;;;;5072051;28;20026;-74
2023/07/17 13:31:37;;;;;;;7.38;3.50;;;;;;;;;;5072184;28;20086;-74
2023/07/17 13:34:03;;;;;;;7.60;2.70;;;;;;;;;;5069563;28;20514;-73
2023/07/17 13:36:29;;;;;;;6.35;2.75;;;;;;;;;;5071824;28;20040;-71
2023/07/17 13:38:55;;;;;;;5.00;2.08;;;;;;;;;;5072078;28;20025;-70
2023/07/17 13:41:39;;;;;;;8.00;2.40;;;;;;;;;;5072190;28;20021;-72
2023/07/17 13:44:05;;;;;;;13.45;3.22;;;;;;;;;;5071110;28;20076;-71
2023/07/17 13:46:31;;;;;;;11.05;2.97;;;;;;;;;;5072007;28;20058;-71
2023/07/17 13:48:58;;;;;;;6.90;2.70;;;;;;;;;;5071785;28;20028;-73
2023/07/17 13:51:24;;;;;;;9.18;2.88;;;;;;;;;;5071035;28;20618;-71
2023/07/17 13:53:50;;;;;;;9.00;2.40;;;;;;;;;;5070564;28;20024;-71
2023/07/17 13:56:16;;;;;;;7.40;2.80;;;;;;;;;;5070638;28;20031;-71
2023/07/17 13:58:42;;;;;;;6.85;2.10;;;;;;;;;;5071511;28;20162;-71
2023/07/17 14:01:08;;;;;;;9.27;2.53;;;;;;;;;;5071667;28;20381;-71
2023/07/17 14:03:34;;;;;;;9.15;3.03;;;;;;;;;;5070680;28;20107;-72
2023/07/17 14:05:59;;;;;;;9.57;3.58;;;;;;;;;;5071838;28;20338;-70
2023/07/17 14:08:25;;;;;;;8.70;2.70;;;;;;;;;;5071651;28;20028;-72
2023/07/17 14:10:51;;;;;;;8.25;2.70;;;;;;;;;;5071138;28;20103;-70
2023/07/17 14:13:17;;;;;;;7.85;2.75;;;;;;;;;;5070287;28;20082;-71
2023/07/17 14:15:43;;;;;;;9.90;2.90;;;;;;;;;;5071342;28;20071;-73
2023/07/17 14:18:10;;;;;;;7.00;2.58;;;;;;;;;;5071530;28;20029;-71
2023/07/17 14:20:36;;;;;;;9.40;2.85;;;;;;;;;;5071264;28;20032;-71
2023/07/17 14:23:02;;;;;;;8.25;3.25;;;;;;;;;;5071557;28;20028;-72
2023/07/17 14:25:28;;;;;;;10.48;2.70;;;;;;;;;;5071306;28;20044;-72
2023/07/17 14:27:54;;;;;;;8.50;2.78;;;;;;;;;;5071062;28;20115;-74
2023/07/17 14:30:19;;;;;;;9.20;2.80;;;;;;;;;;5070960;28;20103;-72